Time;durP1;ratioP1;P1;durP2;ratioP2;P2;SDS_P1;SDS_P2;PMS_P1;PMS_P2;Temp;Humidity;BMP_temperature;BMP_pressure;BME280_temperature;BME280_humidity;BME280_pressure;Samples;Min_cycle;Max_cycle;Signal;HPM_P1;HPM_P2
2023/05/10 00:00:56;;;;;;;1.40;0.40;;;14.20;99.90;;;;;;1909049;75;21079;-83
2023/05/10 00:03:48;;;;;;;0.40;0.20;;;14.10;99.90;;;;;;1883950;76;21098;-84
2023/05/10 00:06:40;;;;;;;1.27;0.60;;;14.20;99.90;;;;;;1898568;75;21047;-84
2023/05/10 00:09:31;;;;;;;1.10;0.50;;;14.20;99.90;;;;;;1898907;75;21078;-84
2023/05/10 00:12:23;;;;;;;1.10;0.50;;;14.10;99.90;;;;;;1895434;75;21101;-83
2023/05/10 00:15:15;;;;;;;2.08;0.40;;;13.90;99.90;;;;;;1895256;75;21094;-84
2023/05/10 00:18:06;;;;;;;0.78;0.40;;;13.90;99.90;;;;;;1896533;75;21122;-84
2023/05/10 00:20:58;;;;;;;0.55;0.45;;;13.90;99.90;;;;;;1884473;76;21577;-84
2023/05/10 00:23:49;;;;;;;1.02;0.40;;;14.00;99.90;;;;;;1906605;75;21106;-84
2023/05/10 00:26:42;;;;;;;2.25;0.50;;;14.00;99.90;;;;;;1889707;75;21180;-84
2023/05/10 00:29:36;;;;;;;1.42;0.50;;;14.00;99.90;;;;;;1894852;75;21131;-83
2023/05/10 00:32:27;;;;;;;1.07;0.47;;;14.10;99.90;;;;;;1884275;76;21102;-85
2023/05/10 00:35:18;;;;;;;0.65;0.40;;;14.10;99.90;;;;;;1896913;75;21180;-84
2023/05/10 00:38:10;;;;;;;1.55;0.40;;;14.40;99.90;;;;;;1887798;75;21155;-84
2023/05/10 00:41:02;;;;;;;0.68;0.50;;;14.60;99.90;;;;;;1906684;75;21638;-83
2023/05/10 00:43:54;;;;;;;0.40;0.40;;;14.70;99.90;;;;;;1903063;75;21185;-84
2023/05/10 00:46:46;;;;;;;2.25;0.40;;;14.70;99.90;;;;;;1898114;75;21098;-83
2023/05/10 00:49:38;;;;;;;1.57;0.40;;;14.70;99.90;;;;;;1894689;75;21152;-83
2023/05/10 00:52:31;;;;;;;2.02;0.88;;;14.50;99.90;;;;;;1894979;75;21110;-84
2023/05/10 00:55:22;;;;;;;2.45;0.68;;;14.40;99.90;;;;;;1896856;75;21114;-84
2023/05/10 01:00:56;;;;;;;1.02;0.40;;;14.00;99.90;;;;;;1938499;72;22526;-83
2023/05/10 01:03:47;;;;;;;1.40;0.37;;;13.80;99.90;;;;;;1894523;75;21180;-83
2023/05/10 01:06:39;;;;;;;2.85;0.50;;;13.70;99.90;;;;;;1890928;75;21132;-85
2023/05/10 01:09:30;;;;;;;1.02;0.40;;;13.60;99.90;;;;;;1885863;75;21129;-84
2023/05/10 01:12:22;;;;;;;2.17;0.40;;;13.60;99.90;;;;;;1875201;75;21164;-84
2023/05/10 01:15:16;;;;;;;1.17;0.47;;;13.50;99.90;;;;;;1894517;75;21095;-84
2023/05/10 01:18:09;;;;;;;2.60;0.33;;;13.40;99.90;;;;;;1892296;75;21095;-84
2023/05/10 01:21:07;;;;;;;0.82;0.40;;;13.30;99.90;;;;;;1887595;75;21068;-84
2023/05/10 01:24:30;;;;;;;1.70;0.80;;;13.30;99.90;;;;;;1883880;75;21090;-83
2023/05/10 01:27:41;;;;;;;4.50;1.50;;;13.20;99.90;;;;;;1885789;75;21152;-84
2023/05/10 01:33:53;;;;;;;2.35;0.50;;;13.20;99.90;;;;;;1955418;72;22237;-83
2023/05/10 01:36:48;;;;;;;0.88;0.40;;;13.20;99.90;;;;;;1895710;74;21565;-86
2023/05/10 01:39:43;;;;;;;2.27;0.50;;;13.20;99.90;;;;;;1895218;75;21648;-83
2023/05/10 01:42:39;;;;;;;0.40;0.40;;;13.20;99.90;;;;;;1917263;75;21168;-84
2023/05/10 01:45:33;;;;;;;4.17;0.35;;;13.30;99.90;;;;;;1899624;75;21125;-84
2023/05/10 01:48:28;;;;;;;2.65;0.50;;;13.40;99.90;;;;;;1896946;75;21080;-84
2023/05/10 01:51:23;;;;;;;1.62;0.50;;;13.50;99.90;;;;;;1908977;75;21171;-83
2023/05/10 01:54:17;;;;;;;5.33;0.70;;;13.60;99.90;;;;;;1905896;75;21103;-83
2023/05/10 01:57:12;;;;;;;1.30;0.50;;;13.60;99.90;;;;;;1904992;75;21126;-84
2023/05/10 02:00:06;;;;;;;2.40;0.42;;;13.60;99.90;;;;;;1901290;75;21172;-84
2023/05/10 02:03:07;;;;;;;2.45;0.53;;;13.40;99.90;;;;;;1898011;75;21135;-84
2023/05/10 02:06:03;;;;;;;2.10;0.40;;;13.30;99.90;;;;;;1916601;75;21551;-83
2023/05/10 02:08:56;;;;;;;3.45;0.55;;;13.30;99.90;;;;;;1895181;75;21190;-83
2023/05/10 02:11:49;;;;;;;2.25;0.50;;;13.30;99.90;;;;;;1895317;75;21106;-83
2023/05/10 02:14:42;;;;;;;2.50;0.50;;;13.20;99.90;;;;;;1898581;75;21180;-83
2023/05/10 02:17:36;;;;;;;0.85;0.40;;;13.20;99.90;;;;;;1897635;75;21107;-83
2023/05/10 02:20:30;;;;;;;1.85;0.50;;;13.20;99.90;;;;;;1895047;75;21171;-83
2023/05/10 02:23:22;;;;;;;1.57;0.40;;;13.20;99.90;;;;;;1913036;75;21148;-84
2023/05/10 02:26:15;;;;;;;1.92;0.55;;;13.20;99.90;;;;;;1905500;75;21157;-83
2023/05/10 02:29:07;;;;;;;1.62;0.70;;;13.20;99.90;;;;;;1884485;76;21144;-84
2023/05/10 02:32:00;;;;;;;0.40;0.20;;;13.20;99.90;;;;;;1883979;76;21584;-84
2023/05/10 02:34:53;;;;;;;0.35;0.30;;;13.20;99.90;;;;;;1912321;75;21098;-84
2023/05/10 02:37:46;;;;;;;0.37;0.37;;;13.20;99.90;;;;;;1895563;75;21139;-84
2023/05/10 02:40:41;;;;;;;0.90;0.40;;;13.30;99.90;;;;;;1899029;75;21182;-84
2023/05/10 02:43:33;;;;;;;3.10;0.40;;;13.40;99.90;;;;;;1898296;75;21064;-84
2023/05/10 02:46:24;;;;;;;0.80;0.30;;;13.40;99.90;;;;;;1894635;75;21098;-84
2023/05/10 02:49:16;;;;;;;1.85;0.30;;;13.50;99.90;;;;;;1894680;75;21133;-84
2023/05/10 02:52:09;;;;;;;0.62;0.30;;;13.60;99.90;;;;;;1895736;75;21216;-83
2023/05/10 02:55:03;;;;;;;0.93;0.33;;;13.70;99.90;;;;;;1899834;75;21087;-83
2023/05/10 02:57:58;;;;;;;0.33;0.20;;;13.70;99.90;;;;;;1894777;75;21090;-83
2023/05/10 03:00:50;;;;;;;0.20;0.20;;;13.60;99.90;;;;;;1909921;75;21178;-83
2023/05/10 03:03:42;;;;;;;0.72;0.10;;;13.70;99.90;;;;;;1902805;75;21587;-83
2023/05/10 03:06:35;;;;;;;2.40;0.30;;;13.90;99.90;;;;;;1898659;75;21102;-83
2023/05/10 03:09:27;;;;;;;0.53;0.23;;;14.00;99.90;;;;;;1896090;75;21562;-83
2023/05/10 03:12:25;;;;;;;0.30;0.10;;;14.00;99.90;;;;;;1908929;75;21109;-84
2023/05/10 03:15:21;;;;;;;0.50;0.20;;;14.10;99.90;;;;;;1883490;75;21209;-84
2023/05/10 03:18:15;;;;;;;1.02;0.30;;;14.10;99.90;;;;;;1897868;75;21148;-84
2023/05/10 03:21:12;;;;;;;1.65;0.30;;;14.10;99.90;;;;;;1882966;76;21126;-84
2023/05/10 03:24:08;;;;;;;0.90;0.28;;;14.10;99.90;;;;;;1895631;75;21801;-84
2023/05/10 03:27:04;;;;;;;0.25;0.20;;;14.00;99.90;;;;;;1886063;75;21556;-84
2023/05/10 03:32:35;;;;;;;1.40;0.20;;;13.70;99.90;;;;;;1956457;72;22341;-83
2023/05/10 03:35:26;;;;;;;2.10;0.20;;;13.60;99.90;;;;;;1916520;75;21161;-85
2023/05/10 03:38:18;;;;;;;1.17;0.30;;;13.50;99.90;;;;;;1931869;73;21087;-84
2023/05/10 03:41:12;;;;;;;0.85;0.23;;;13.50;99.90;;;;;;1941275;73;21124;-84
2023/05/10 03:44:03;;;;;;;1.12;0.30;;;13.50;99.90;;;;;;1929355;73;21169;-84
2023/05/10 03:49:34;;;;;;;0.85;0.50;;;13.50;99.90;;;;;;1952133;72;22255;-83
2023/05/10 03:52:26;;;;;;;1.10;0.30;;;13.60;99.90;;;;;;1899167;74;21169;-83
2023/05/10 03:55:19;;;;;;;0.53;0.30;;;13.60;99.90;;;;;;1906218;73;21100;-84
2023/05/10 03:58:15;;;;;;;0.82;0.30;;;13.40;99.90;;;;;;1899625;75;21106;-83
2023/05/10 04:01:07;;;;;;;1.35;0.45;;;13.30;99.90;;;;;;1906133;75;21146;-86
2023/05/10 04:03:58;;;;;;;0.37;0.30;;;13.20;99.90;;;;;;1885538;73;21090;-83
2023/05/10 04:06:50;;;;;;;1.40;0.47;;;13.20;99.90;;;;;;1914486;75;21088;-84
2023/05/10 04:09:42;;;;;;;0.45;0.35;;;13.20;99.90;;;;;;1899613;73;21047;-84
2023/05/10 04:12:34;;;;;;;4.00;0.47;;;13.10;99.90;;;;;;1898366;75;21083;-84
2023/05/10 04:15:25;;;;;;;0.47;0.47;;;13.10;99.90;;;;;;1898558;75;21681;-84
2023/05/10 04:18:17;;;;;;;1.70;0.40;;;13.10;99.90;;;;;;1906389;75;21135;-81
2023/05/10 04:21:14;;;;;;;0.70;0.35;;;13.10;99.90;;;;;;1901043;75;21090;-80
2023/05/10 04:24:06;;;;;;;0.45;0.33;;;13.20;99.90;;;;;;1917167;75;21122;-80
2023/05/10 04:26:58;;;;;;;0.10;0.10;;;13.30;99.90;;;;;;1901475;75;21094;-80
2023/05/10 04:29:50;;;;;;;0.42;0.30;;;13.20;99.90;;;;;;1908592;75;21110;-79
2023/05/10 04:32:41;;;;;;;0.55;0.20;;;13.20;99.90;;;;;;1897317;75;21063;-79
2023/05/10 04:35:32;;;;;;;2.75;0.17;;;13.10;99.90;;;;;;1883908;76;21064;-80
2023/05/10 04:38:24;;;;;;;0.68;0.20;;;12.90;99.90;;;;;;1894428;75;21254;-81
2023/05/10 04:41:15;;;;;;;0.42;0.30;;;12.70;99.90;;;;;;1890993;73;21546;-82
2023/05/10 04:44:07;;;;;;;1.37;0.50;;;12.50;99.90;;;;;;1881858;76;21577;-83
2023/05/10 04:46:58;;;;;;;7.67;0.40;;;12.40;99.90;;;;;;1899187;75;21319;-82
2023/05/10 04:49:50;;;;;;;0.55;0.30;;;12.30;99.90;;;;;;1907043;74;21113;-82
2023/05/10 04:52:41;;;;;;;2.87;0.33;;;12.30;99.90;;;;;;1906046;75;21059;-81
2023/05/10 04:55:33;;;;;;;0.85;0.40;;;12.40;99.90;;;;;;1892547;75;21129;-82
2023/05/10 04:58:24;;;;;;;0.55;0.40;;;12.30;99.90;;;;;;1884456;73;21417;-81
2023/05/10 05:01:16;;;;;;;4.83;0.57;;;12.30;99.90;;;;;;1871512;77;21630;-81
2023/05/10 05:04:07;;;;;;;2.08;0.40;;;12.40;99.90;;;;;;1871716;77;21175;-81
2023/05/10 05:06:59;;;;;;;3.58;0.60;;;12.40;99.90;;;;;;1864650;77;21099;-83
2023/05/10 05:09:50;;;;;;;0.80;0.40;;;12.50;99.90;;;;;;1890250;75;21086;-82
2023/05/10 05:12:42;;;;;;;1.80;0.37;;;12.50;99.90;;;;;;1879108;74;21114;-82
2023/05/10 05:15:34;;;;;;;2.33;0.50;;;12.40;99.90;;;;;;1892277;75;21090;-83
2023/05/10 05:18:25;;;;;;;0.65;0.45;;;12.40;99.90;;;;;;1884707;75;21087;-82
2023/05/10 05:21:18;;;;;;;3.37;0.50;;;12.40;99.90;;;;;;1870628;75;21181;-82
2023/05/10 05:24:10;;;;;;;1.70;0.60;;;12.40;99.90;;;;;;1882895;76;21156;-82
2023/05/10 05:27:01;;;;;;;0.90;0.72;;;12.50;99.90;;;;;;1878873;75;21163;-82
2023/05/10 05:29:55;;;;;;;1.37;0.47;;;12.50;99.90;;;;;;1892205;75;21215;-81
2023/05/10 05:32:46;;;;;;;1.98;0.50;;;12.40;99.90;;;;;;1892016;75;21190;-81
2023/05/10 05:35:38;;;;;;;1.62;0.57;;;12.60;99.90;;;;;;1901471;75;21267;-81
2023/05/10 05:38:30;;;;;;;1.55;0.53;;;12.60;99.90;;;;;;1884432;75;21096;-82
2023/05/10 05:41:22;;;;;;;0.85;0.50;;;12.70;99.90;;;;;;1882052;75;21052;-83
2023/05/10 05:44:13;;;;;;;2.52;0.70;;;12.70;99.90;;;;;;1882016;75;21119;-82
2023/05/10 05:47:06;;;;;;;0.65;0.45;;;12.70;99.90;;;;;;1895712;75;21118;-81
2023/05/10 05:49:57;;;;;;;1.10;0.35;;;12.70;99.90;;;;;;1894213;74;21110;-81
2023/05/10 05:52:49;;;;;;;1.30;0.45;;;12.80;99.90;;;;;;1903397;74;21123;-81
2023/05/10 05:55:40;;;;;;;2.70;0.65;;;13.00;99.90;;;;;;1903965;74;21252;-82
2023/05/10 05:58:32;;;;;;;1.55;0.50;;;13.10;99.90;;;;;;1904162;74;21146;-82
2023/05/10 06:01:24;;;;;;;1.95;0.33;;;13.20;99.90;;;;;;1909054;74;21089;-82
2023/05/10 06:04:15;;;;;;;1.05;0.45;;;13.30;99.90;;;;;;1904010;74;21197;-81
2023/05/10 06:07:07;;;;;;;2.52;0.78;;;13.30;99.90;;;;;;1903895;74;21127;-82
2023/05/10 06:09:59;;;;;;;1.55;0.62;;;13.30;99.90;;;;;;1905727;74;21340;-81
2023/05/10 06:12:50;;;;;;;3.10;0.50;;;13.30;99.90;;;;;;1908056;74;21107;-82
2023/05/10 06:15:42;;;;;;;1.75;0.53;;;13.30;99.90;;;;;;1903722;74;21090;-82
2023/05/10 06:18:34;;;;;;;0.80;0.30;;;13.20;99.90;;;;;;1921142;74;21098;-81
2023/05/10 06:21:26;;;;;;;2.12;0.50;;;13.30;99.90;;;;;;1914156;74;21091;-81
2023/05/10 06:24:17;;;;;;;2.42;0.40;;;13.30;99.90;;;;;;1908849;74;21116;-80
2023/05/10 06:27:09;;;;;;;1.75;0.50;;;13.20;99.90;;;;;;1904309;74;21142;-80
2023/05/10 06:30:00;;;;;;;2.27;0.60;;;13.10;99.90;;;;;;1898440;74;21216;-81
2023/05/10 06:32:54;;;;;;;1.98;0.80;;;13.10;99.90;;;;;;1915042;74;21150;-81
2023/05/10 06:35:46;;;;;;;1.42;0.50;;;13.10;99.90;;;;;;1911107;74;21086;-81
2023/05/10 06:38:37;;;;;;;3.05;0.50;;;13.00;99.90;;;;;;1906037;74;21086;-81
2023/05/10 06:41:29;;;;;;;1.72;0.40;;;13.10;99.90;;;;;;1896247;74;21619;-83
2023/05/10 06:44:21;;;;;;;0.72;0.30;;;13.10;99.90;;;;;;1915341;74;21085;-81
2023/05/10 06:47:12;;;;;;;3.22;0.60;;;13.10;99.90;;;;;;1912653;74;21059;-81
2023/05/10 06:50:04;;;;;;;2.62;0.47;;;13.00;99.90;;;;;;1906927;74;21156;-81
2023/05/10 06:52:55;;;;;;;1.67;0.53;;;13.00;99.90;;;;;;1903897;74;21098;-81
2023/05/10 06:55:47;;;;;;;2.10;0.60;;;13.00;99.90;;;;;;1903821;74;21521;-81
2023/05/10 06:58:38;;;;;;;4.42;0.75;;;12.90;99.90;;;;;;1906581;74;21566;-81
2023/05/10 07:01:30;;;;;;;2.98;0.82;;;12.90;99.90;;;;;;1892973;76;21097;-82
2023/05/10 07:04:21;;;;;;;1.85;0.70;;;13.00;99.90;;;;;;1915383;74;21120;-82
2023/05/10 07:07:13;;;;;;;8.13;1.05;;;12.90;99.90;;;;;;1914978;74;21223;-82
2023/05/10 07:10:05;;;;;;;3.17;0.93;;;13.00;99.90;;;;;;1914351;74;21086;-81
2023/05/10 07:12:57;;;;;;;1.15;0.45;;;13.00;99.90;;;;;;1909706;74;21144;-80
2023/05/10 07:15:48;;;;;;;1.12;0.40;;;13.00;99.90;;;;;;1904051;74;21584;-82
2023/05/10 07:18:39;;;;;;;4.50;0.85;;;13.10;99.90;;;;;;1903971;74;21110;-81
2023/05/10 07:21:31;;;;;;;4.47;0.80;;;13.00;99.90;;;;;;1925826;74;21667;-81
2023/05/10 07:24:23;;;;;;;2.72;0.70;;;13.10;99.90;;;;;;1910124;74;21087;-80
2023/05/10 07:27:14;;;;;;;3.83;1.15;;;13.10;99.90;;;;;;1904981;74;21099;-80
2023/05/10 07:30:08;;;;;;;2.22;0.80;;;13.10;99.90;;;;;;1904038;74;21168;-80
2023/05/10 07:32:59;;;;;;;2.33;0.53;;;13.10;99.90;;;;;;1903984;74;21154;-80
2023/05/10 07:35:52;;;;;;;4.65;1.05;;;13.20;99.90;;;;;;1906889;74;21104;-81
2023/05/10 07:38:43;;;;;;;4.22;1.15;;;13.20;99.90;;;;;;1907416;74;21094;-82
2023/05/10 07:41:34;;;;;;;4.05;0.80;;;13.20;99.90;;;;;;1903937;74;21102;-81
2023/05/10 07:44:26;;;;;;;2.35;0.60;;;13.20;99.90;;;;;;1903692;74;21157;-80
2023/05/10 07:47:17;;;;;;;4.28;0.70;;;13.20;99.90;;;;;;1905761;74;21042;-80
2023/05/10 07:50:10;;;;;;;4.22;1.07;;;13.20;99.90;;;;;;1908230;74;21204;-81
2023/05/10 07:53:02;;;;;;;3.45;0.70;;;13.30;99.90;;;;;;1904019;74;21141;-80
2023/05/10 07:55:55;;;;;;;3.33;0.70;;;13.30;99.90;;;;;;1898508;74;21150;-80
2023/05/10 07:58:48;;;;;;;3.98;0.90;;;13.30;99.90;;;;;;1893863;74;21223;-81
2023/05/10 08:01:43;;;;;;;2.92;0.88;;;13.40;99.90;;;;;;1925498;74;21089;-82
2023/05/10 08:04:36;;;;;;;2.90;0.60;;;13.40;99.90;;;;;;1905918;74;21110;-83
2023/05/10 08:07:32;;;;;;;3.30;0.65;;;13.50;99.90;;;;;;1904027;74;21134;-80
2023/05/10 08:10:25;;;;;;;2.90;0.60;;;13.50;99.90;;;;;;1904091;74;21106;-82
2023/05/10 08:13:22;;;;;;;2.65;0.93;;;13.40;99.90;;;;;;1904950;74;21070;-83
2023/05/10 08:16:15;;;;;;;2.95;1.05;;;13.40;99.90;;;;;;1893378;74;21102;-81
2023/05/10 08:19:09;;;;;;;3.58;1.00;;;13.50;99.90;;;;;;1905278;74;21109;-80
2023/05/10 08:22:02;;;;;;;2.55;1.10;;;13.60;99.90;;;;;;1903779;74;21110;-79
2023/05/10 08:24:54;;;;;;;3.85;0.80;;;13.60;99.90;;;;;;1905415;74;21159;-81
2023/05/10 08:27:48;;;;;;;4.10;0.70;;;13.70;99.90;;;;;;1906270;74;21216;-80
2023/05/10 08:30:39;;;;;;;3.75;0.82;;;13.70;99.90;;;;;;1907264;74;21213;-80
2023/05/10 08:33:37;;;;;;;2.30;0.80;;;13.80;99.90;;;;;;1903234;74;21098;-81
2023/05/10 08:36:32;;;;;;;4.28;0.98;;;13.90;99.90;;;;;;1898410;74;21163;-80
2023/05/10 08:39:24;;;;;;;3.10;1.00;;;13.90;99.90;;;;;;1915143;74;21106;-81
2023/05/10 08:42:25;;;;;;;3.37;1.07;;;13.90;99.90;;;;;;1912683;74;21067;-81
2023/05/10 08:45:20;;;;;;;4.78;0.82;;;14.00;99.90;;;;;;1910353;74;21606;-80
2023/05/10 08:48:13;;;;;;;4.35;1.02;;;14.20;99.90;;;;;;1904489;74;21102;-80
2023/05/10 08:51:09;;;;;;;6.83;1.10;;;14.20;99.90;;;;;;1903810;74;21110;-80
2023/05/10 08:54:02;;;;;;;5.80;0.82;;;14.20;99.90;;;;;;1887502;74;21175;-82
2023/05/10 08:57:01;;;;;;;2.33;0.65;;;14.30;99.90;;;;;;1884334;75;21124;-81
2023/05/10 08:59:54;;;;;;;3.35;0.70;;;14.30;99.90;;;;;;1906097;75;21040;-81
2023/05/10 09:02:50;;;;;;;5.50;1.20;;;14.20;99.90;;;;;;1893495;75;21172;-81
2023/05/10 09:05:44;;;;;;;3.85;0.80;;;14.20;99.90;;;;;;1874963;75;21106;-81
2023/05/10 09:08:39;;;;;;;3.42;0.80;;;14.30;99.90;;;;;;1885439;75;21695;-81
2023/05/10 09:11:31;;;;;;;2.65;0.80;;;14.30;99.90;;;;;;1894136;75;21099;-80
2023/05/10 09:14:27;;;;;;;4.35;1.10;;;14.30;99.90;;;;;;1875688;75;21145;-81
2023/05/10 09:17:20;;;;;;;2.92;0.90;;;14.30;99.90;;;;;;1906375;75;21214;-82
2023/05/10 09:20:17;;;;;;;2.08;0.60;;;14.30;99.90;;;;;;1888410;75;21221;-82
2023/05/10 09:23:11;;;;;;;4.10;0.70;;;14.30;99.90;;;;;;1891484;75;21101;-81
2023/05/10 09:26:07;;;;;;;4.60;0.85;;;14.40;99.90;;;;;;1898387;75;21161;-81
2023/05/10 09:29:06;;;;;;;4.25;1.32;;;14.50;99.90;;;;;;1897402;75;21090;-81
2023/05/10 09:32:00;;;;;;;2.42;0.80;;;14.70;99.90;;;;;;1883578;76;21102;-83
2023/05/10 09:34:53;;;;;;;1.95;0.70;;;14.70;99.90;;;;;;1911624;75;21047;-80
2023/05/10 09:37:57;;;;;;;2.90;0.82;;;14.70;99.90;;;;;;1894340;75;21219;-82
2023/05/10 09:40:55;;;;;;;3.45;0.90;;;14.70;99.90;;;;;;1895403;75;21097;-82
2023/05/10 09:43:49;;;;;;;3.30;0.60;;;14.60;99.90;;;;;;1900762;75;21062;-80
2023/05/10 09:46:47;;;;;;;3.55;0.80;;;14.60;99.90;;;;;;1895655;75;21529;-81
2023/05/10 09:49:41;;;;;;;2.85;0.93;;;14.70;99.90;;;;;;1873208;75;21149;-80
2023/05/10 09:52:37;;;;;;;3.08;0.70;;;14.80;99.90;;;;;;1893356;75;21089;-82
2023/05/10 09:55:40;;;;;;;4.12;0.80;;;14.70;99.90;;;;;;1892586;75;21178;-80
2023/05/10 09:58:34;;;;;;;4.70;0.72;;;14.80;99.90;;;;;;1890228;75;21056;-80
2023/05/10 10:01:31;;;;;;;5.15;0.80;;;14.80;99.90;;;;;;1898272;75;21095;-80
2023/05/10 10:04:26;;;;;;;3.80;0.70;;;14.80;99.90;;;;;;1894440;75;21169;-81
2023/05/10 10:07:25;;;;;;;4.45;0.82;;;14.90;99.90;;;;;;1894566;75;21087;-80
2023/05/10 10:10:17;;;;;;;2.75;0.60;;;15.30;99.90;;;;;;1894302;75;21154;-82
2023/05/10 10:13:15;;;;;;;3.58;0.80;;;15.30;99.90;;;;;;1896544;75;21176;-81
2023/05/10 10:16:10;;;;;;;3.33;1.17;;;15.30;99.90;;;;;;1883682;75;21104;-80
2023/05/10 10:19:03;;;;;;;2.55;0.70;;;15.30;99.90;;;;;;1894071;75;21239;-80
2023/05/10 10:21:56;;;;;;;4.15;0.80;;;15.20;99.90;;;;;;1861378;77;21119;-81
2023/05/10 10:24:47;;;;;;;2.72;0.82;;;15.30;99.90;;;;;;1893053;75;21512;-80
2023/05/10 10:27:46;;;;;;;2.30;0.70;;;15.30;99.90;;;;;;1901715;75;21160;-80
2023/05/10 10:30:43;;;;;;;1.50;0.55;;;15.40;99.90;;;;;;1878821;75;21228;-82
2023/05/10 10:33:51;;;;;;;3.25;0.80;;;15.30;99.90;;;;;;1894176;75;21147;-80
2023/05/10 10:36:46;;;;;;;2.10;0.70;;;15.30;99.90;;;;;;1901785;75;21096;-80
2023/05/10 10:39:39;;;;;;;1.77;0.50;;;15.40;99.90;;;;;;1882156;75;21674;-80
2023/05/10 10:42:50;;;;;;;1.62;0.53;;;15.60;99.90;;;;;;1904217;75;21111;-80
2023/05/10 10:45:44;;;;;;;2.70;0.65;;;15.60;99.90;;;;;;1903599;75;21108;-80
2023/05/10 10:48:38;;;;;;;1.25;0.40;;;15.50;99.90;;;;;;1887022;75;21099;-80
2023/05/10 10:51:34;;;;;;;2.25;0.70;;;15.60;99.90;;;;;;1894774;75;21103;-80
2023/05/10 10:54:34;;;;;;;2.75;0.53;;;15.70;99.90;;;;;;1897673;74;21078;-80
2023/05/10 10:57:29;;;;;;;1.65;0.47;;;15.80;99.90;;;;;;1905524;74;21492;-80
2023/05/10 11:00:32;;;;;;;2.47;0.60;;;15.90;99.90;;;;;;1921112;74;21240;-80
2023/05/10 11:03:28;;;;;;;2.05;0.30;;;16.00;99.90;;;;;;1918670;74;21101;-79
2023/05/10 11:06:31;;;;;;;2.15;0.40;;;16.00;99.90;;;;;;1914466;74;21098;-80
2023/05/10 11:09:26;;;;;;;2.70;0.55;;;16.00;99.90;;;;;;1896791;74;21164;-80
2023/05/10 11:12:19;;;;;;;2.08;0.55;;;16.00;99.90;;;;;;1904459;74;21575;-80
2023/05/10 11:15:13;;;;;;;2.50;0.70;;;16.10;99.90;;;;;;1903906;74;21122;-80
2023/05/10 11:18:21;;;;;;;5.92;0.88;;;16.30;99.90;;;;;;1905165;74;21119;-80
2023/05/10 11:21:17;;;;;;;1.67;0.60;;;16.40;99.90;;;;;;1912727;74;21558;-80
2023/05/10 11:24:18;;;;;;;1.27;0.40;;;16.20;99.90;;;;;;1911092;74;21101;-80
2023/05/10 11:27:13;;;;;;;4.12;0.70;;;16.30;99.90;;;;;;1904983;74;21098;-81
2023/05/10 11:30:10;;;;;;;3.25;0.93;;;16.00;99.90;;;;;;1896399;74;21395;-80
2023/05/10 11:33:04;;;;;;;2.37;0.60;;;15.70;99.90;;;;;;1915124;74;21637;-79
2023/05/10 11:36:12;;;;;;;2.15;0.57;;;15.60;99.90;;;;;;1892774;76;21191;-80
2023/05/10 11:39:06;;;;;;;3.08;0.88;;;15.50;99.90;;;;;;1893355;74;21070;-80
2023/05/10 11:42:03;;;;;;;2.98;0.72;;;15.20;99.90;;;;;;1913748;74;21164;-80
2023/05/10 11:44:55;;;;;;;2.10;0.70;;;15.20;99.90;;;;;;1899977;74;21135;-81
2023/05/10 11:47:51;;;;;;;1.87;0.70;;;15.10;99.90;;;;;;1903493;74;21074;-79
2023/05/10 11:50:46;;;;;;;3.47;0.70;;;15.20;99.90;;;;;;1894526;74;21596;-80
2023/05/10 11:53:38;;;;;;;3.22;0.72;;;15.20;99.90;;;;;;1932486;74;21070;-79
2023/05/10 11:56:36;;;;;;;1.37;0.40;;;15.10;99.90;;;;;;1891953;74;21206;-81
2023/05/10 11:59:28;;;;;;;0.90;0.30;;;15.10;99.90;;;;;;1917675;74;21062;-80
2023/05/10 12:02:27;;;;;;;1.47;0.62;;;15.10;99.90;;;;;;1897150;74;21090;-80
2023/05/10 12:05:20;;;;;;;1.15;0.50;;;15.10;99.90;;;;;;1903750;74;21573;-81
2023/05/10 12:08:17;;;;;;;1.42;0.50;;;15.20;99.90;;;;;;1908368;74;21113;-80
2023/05/10 12:11:10;;;;;;;2.15;1.00;;;15.10;99.90;;;;;;1906696;74;21093;-79
2023/05/10 12:14:06;;;;;;;0.70;0.30;;;14.90;99.90;;;;;;1903700;74;21506;-79
2023/05/10 12:17:04;;;;;;;1.42;0.40;;;14.90;99.90;;;;;;1898786;74;21175;-79
2023/05/10 12:20:00;;;;;;;1.75;0.50;;;14.90;99.90;;;;;;1915642;74;21505;-79
2023/05/10 12:22:55;;;;;;;1.72;0.45;;;15.00;99.90;;;;;;1912493;74;21439;-79
2023/05/10 12:25:53;;;;;;;2.12;0.57;;;15.10;99.90;;;;;;1908728;74;21573;-80
2023/05/10 12:28:47;;;;;;;3.00;0.57;;;15.20;99.90;;;;;;1904179;74;21156;-80
2023/05/10 12:31:52;;;;;;;1.45;0.45;;;15.40;99.90;;;;;;1919433;74;21274;-80
2023/05/10 12:34:47;;;;;;;2.47;0.40;;;15.60;99.90;;;;;;1915507;74;21334;-79
2023/05/10 12:37:42;;;;;;;1.92;0.57;;;15.70;99.90;;;;;;1892843;76;21114;-80
2023/05/10 12:40:35;;;;;;;2.02;0.40;;;15.60;99.90;;;;;;1910449;74;21055;-80
2023/05/10 12:43:31;;;;;;;3.45;0.40;;;15.70;99.90;;;;;;1912885;74;21102;-80
2023/05/10 12:46:27;;;;;;;3.05;0.50;;;15.80;99.90;;;;;;1901640;74;21121;-80
2023/05/10 12:49:19;;;;;;;1.92;0.50;;;15.80;99.90;;;;;;1903750;74;21119;-80
2023/05/10 12:52:12;;;;;;;1.20;0.30;;;15.80;99.90;;;;;;1925897;74;21566;-79
2023/05/10 12:55:07;;;;;;;1.12;0.35;;;15.90;99.90;;;;;;1909028;74;21167;-80
2023/05/10 12:58:00;;;;;;;2.17;0.47;;;16.10;99.90;;;;;;1910490;74;21176;-80
2023/05/10 13:00:53;;;;;;;1.00;0.50;;;16.20;99.90;;;;;;1904093;74;21115;-81
2023/05/10 13:03:48;;;;;;;2.80;0.45;;;16.20;99.90;;;;;;1899366;75;21171;-81
2023/05/10 13:06:43;;;;;;;1.67;0.50;;;16.30;99.90;;;;;;1899353;75;21104;-80
2023/05/10 13:09:36;;;;;;;1.85;0.55;;;16.30;99.90;;;;;;1899382;75;21185;-81
2023/05/10 13:12:30;;;;;;;0.80;0.40;;;16.30;99.90;;;;;;1921692;74;21595;-81
2023/05/10 13:15:28;;;;;;;2.77;0.60;;;16.30;99.90;;;;;;1899537;74;21108;-80
2023/05/10 13:18:21;;;;;;;2.95;0.40;;;16.20;99.90;;;;;;1921255;74;21261;-80
2023/05/10 13:21:14;;;;;;;3.40;0.70;;;16.20;99.90;;;;;;1901221;74;21049;-80
2023/05/10 13:24:08;;;;;;;3.22;0.45;;;16.00;99.90;;;;;;1907662;74;21153;-80
2023/05/10 13:27:01;;;;;;;1.17;0.30;;;16.20;99.90;;;;;;1903994;74;21106;-80
2023/05/10 13:29:59;;;;;;;0.70;0.40;;;16.10;99.90;;;;;;1898702;74;21094;-81
2023/05/10 13:32:51;;;;;;;1.62;0.40;;;16.10;99.90;;;;;;1914552;74;21130;-79
2023/05/10 13:35:50;;;;;;;2.62;0.20;;;16.40;99.90;;;;;;1875606;76;21062;-79
2023/05/10 13:38:46;;;;;;;1.12;0.23;;;16.50;99.90;;;;;;1908490;74;21145;-80
2023/05/10 13:41:40;;;;;;;2.40;0.40;;;16.60;99.90;;;;;;1904143;74;21598;-80
2023/05/10 13:44:35;;;;;;;2.25;0.65;;;16.70;99.90;;;;;;1903803;74;21821;-81
2023/05/10 13:47:28;;;;;;;4.40;0.90;;;16.80;99.90;;;;;;1904078;74;21101;-81
2023/05/10 13:50:28;;;;;;;0.80;0.30;;;16.80;99.90;;;;;;1906916;74;21094;-81
2023/05/10 13:53:22;;;;;;;1.62;0.60;;;17.10;99.90;;;;;;1909461;74;21102;-81
2023/05/10 13:56:17;;;;;;;2.02;0.70;;;17.60;99.90;;;;;;1904597;74;21062;-80
2023/05/10 13:59:11;;;;;;;2.35;0.60;;;17.40;99.90;;;;;;1897982;75;21664;-80
2023/05/10 14:02:05;;;;;;;2.17;0.50;;;17.70;99.90;;;;;;1892198;75;21102;-80
2023/05/10 14:05:01;;;;;;;2.95;0.60;;;17.80;99.90;;;;;;1916394;75;21082;-79
2023/05/10 14:07:56;;;;;;;1.27;0.50;;;17.80;99.90;;;;;;1902277;75;21145;-80
2023/05/10 14:10:50;;;;;;;2.83;0.70;;;18.30;99.90;;;;;;1883288;75;21118;-80
2023/05/10 14:13:45;;;;;;;0.70;0.50;;;18.20;99.90;;;;;;1905202;75;21100;-80
2023/05/10 14:16:38;;;;;;;2.05;0.40;;;18.30;99.90;;;;;;1884861;75;21629;-80
2023/05/10 14:19:33;;;;;;;1.85;0.40;;;18.70;99.90;;;;;;1898418;75;21201;-80
2023/05/10 14:22:27;;;;;;;1.62;0.50;;;19.20;99.90;;;;;;1897663;75;21173;-80
2023/05/10 14:25:23;;;;;;;1.90;0.55;;;19.60;99.90;;;;;;1894425;75;21207;-80
2023/05/10 14:28:18;;;;;;;0.80;0.30;;;19.20;99.90;;;;;;1911441;75;21103;-80
2023/05/10 14:31:10;;;;;;;2.20;0.35;;;19.10;99.90;;;;;;1884175;75;21139;-80
2023/05/10 14:34:05;;;;;;;2.17;0.65;;;19.30;99.90;;;;;;1898396;75;21510;-80
2023/05/10 14:36:58;;;;;;;0.95;0.47;;;19.30;99.90;;;;;;1883240;76;21122;-81
2023/05/10 14:39:52;;;;;;;2.55;0.47;;;19.40;99.90;;;;;;1913047;75;21140;-80
2023/05/10 14:42:48;;;;;;;1.90;0.50;;;19.50;99.90;;;;;;1893710;75;21175;-81
2023/05/10 14:45:39;;;;;;;3.20;0.40;;;19.70;99.90;;;;;;1895910;75;21168;-81
2023/05/10 14:48:35;;;;;;;1.37;0.40;;;19.70;99.90;;;;;;1883425;76;21123;-81
2023/05/10 14:51:32;;;;;;;2.40;0.42;;;19.70;99.90;;;;;;1895187;75;21168;-81
2023/05/10 14:54:26;;;;;;;1.55;0.50;;;19.50;99.90;;;;;;1894878;75;21477;-80
2023/05/10 14:57:22;;;;;;;2.05;0.60;;;19.70;99.90;;;;;;1891225;75;21058;-80
2023/05/10 15:00:24;;;;;;;2.30;0.72;;;19.70;99.90;;;;;;1883439;76;21112;-80
2023/05/10 15:03:29;;;;;;;1.12;0.40;;;20.00;99.90;;;;;;1903215;75;21112;-79
2023/05/10 15:06:27;;;;;;;1.22;0.40;;;19.90;99.90;;;;;;1898781;75;21102;-80
2023/05/10 15:09:25;;;;;;;2.90;0.57;;;20.00;99.90;;;;;;1894997;75;21330;-81
2023/05/10 15:12:21;;;;;;;3.10;0.50;;;20.20;99.90;;;;;;1894513;75;21059;-82
2023/05/10 15:15:14;;;;;;;2.92;0.65;;;20.10;99.90;;;;;;1894163;75;21055;-81
2023/05/10 15:18:10;;;;;;;2.58;0.65;;;20.10;99.90;;;;;;1896344;75;21118;-80